Time;durP1;ratioP1;P1;durP2;ratioP2;P2;SDS_P1;SDS_P2;PMS_P1;PMS_P2;Temp;Humidity;BMP_temperature;BMP_pressure;BME280_temperature;BME280_humidity;BME280_pressure;Samples;Min_cycle;Max_cycle;Signal;HPM_P1;HPM_P2
2021/06/27 00:01:18;;;;;;;7.85;5.90;;;;;;;19.17;70.15;99619.34;4970008;28;20091;-68
2021/06/27 00:04:13;;;;;;;7.40;5.60;;;;;;;19.13;70.03;99625.50;4954732;29;20051;-68
2021/06/27 00:06:42;;;;;;;7.97;5.78;;;;;;;19.05;70.36;99612.84;4955247;28;20059;-68
2021/06/27 00:09:12;;;;;;;7.55;5.82;;;;;;;19.09;70.55;99621.34;4955147;29;20114;-68
2021/06/27 00:11:43;;;;;;;6.90;5.65;;;;;;;18.95;70.57;99626.19;4955084;28;20095;-68
2021/06/27 00:14:12;;;;;;;8.38;6.00;;;;;;;18.89;70.80;99632.41;4955461;29;20526;-67
2021/06/27 00:16:41;;;;;;;6.68;5.20;;;;;;;18.70;71.01;99606.34;4955122;29;20043;-68
2021/06/27 00:19:10;;;;;;;7.97;6.10;;;;;;;18.80;71.33;99637.91;4955080;28;20403;-68
2021/06/27 00:21:39;;;;;;;9.95;5.22;;;;;;;18.81;71.12;99623.25;4955015;29;20499;-68
2021/06/27 00:24:08;;;;;;;9.32;5.28;;;;;;;18.86;71.17;99626.50;4954999;29;20138;-68
2021/06/27 00:26:37;;;;;;;8.35;4.90;;;;;;;18.88;71.25;99627.28;4955019;29;20055;-68
2021/06/27 00:29:08;;;;;;;8.45;5.40;;;;;;;18.89;71.09;99629.81;4955229;28;20521;-68
2021/06/27 00:31:37;;;;;;;7.65;5.38;;;;;;;18.77;71.07;99629.41;4957256;28;20051;-68
2021/06/27 00:34:06;;;;;;;8.68;5.75;;;;;;;18.72;71.35;99635.59;4958511;29;20377;-68
2021/06/27 00:36:35;;;;;;;9.98;5.88;;;;;;;18.74;71.53;99638.94;4958819;29;20098;-68
2021/06/27 00:39:05;;;;;;;7.00;5.35;;;;;;;18.78;71.50;99636.25;4958737;29;20050;-68
2021/06/27 00:41:34;;;;;;;7.45;5.55;;;;;;;18.84;71.46;99636.03;4958170;29;20130;-68
2021/06/27 00:44:03;;;;;;;6.57;5.55;;;;;;;18.88;71.24;99635.91;4958418;29;20507;-68
2021/06/27 00:46:33;;;;;;;8.18;6.00;;;;;;;18.89;71.22;99628.97;4958351;29;20138;-68
2021/06/27 00:49:02;;;;;;;8.90;6.13;;;;;;;18.92;71.02;99626.28;4958648;28;20098;-68
2021/06/27 00:51:31;;;;;;;8.90;6.73;;;;;;;18.91;70.99;99634.97;4958119;29;20083;-68
2021/06/27 00:54:00;;;;;;;8.80;6.60;;;;;;;18.87;71.12;99638.53;4958511;29;20047;-68
2021/06/27 00:56:29;;;;;;;9.05;6.57;;;;;;;18.59;71.28;99629.16;4958418;29;20635;-68
2021/06/27 00:58:58;;;;;;;8.95;6.68;;;;;;;18.66;71.75;99656.50;4958151;28;20094;-68
2021/06/27 01:01:27;;;;;;;9.13;6.17;;;;;;;18.72;71.81;99645.06;4958361;29;20578;-68
2021/06/27 01:03:58;;;;;;;7.55;6.03;;;;;;;18.79;71.75;99645.72;4958036;28;20055;-67
2021/06/27 01:06:27;;;;;;;8.73;6.55;;;;;;;18.74;71.53;99648.44;4957964;28;20142;-67
2021/06/27 01:08:56;;;;;;;7.53;5.93;;;;;;;18.54;71.83;99646.56;4957965;28;20054;-68
2021/06/27 01:11:25;;;;;;;9.23;6.85;;;;;;;18.55;72.39;99645.66;4957777;29;20044;-68
2021/06/27 01:13:54;;;;;;;8.32;6.38;;;;;;;18.59;72.45;99644.66;4957840;29;20510;-67
2021/06/27 01:16:23;;;;;;;8.40;6.38;;;;;;;18.52;72.09;99643.16;4957770;29;20703;-67
2021/06/27 01:18:54;;;;;;;10.73;6.63;;;;;;;18.48;72.55;99636.41;4957993;29;20043;-68
2021/06/27 01:21:25;;;;;;;9.07;6.53;;;;;;;18.28;72.82;99623.28;4957767;29;20410;-68
2021/06/27 01:23:54;;;;;;;8.20;6.43;;;;;;;18.36;72.85;99641.94;4957667;29;20154;-67
2021/06/27 01:26:23;;;;;;;8.95;6.85;;;;;;;18.21;72.87;99626.94;4957559;29;20107;-67
2021/06/27 01:28:53;;;;;;;;;;;;;;;18.12;73.24;99642.75;4958021;28;20055;-67
2021/06/27 01:31:22;;;;;;;9.20;6.88;;;;;;;17.91;73.78;99627.94;4957823;29;19922;-67
2021/06/27 01:33:52;;;;;;;8.52;6.25;;;;;;;17.89;73.95;99629.72;4957510;28;20138;-67
2021/06/27 01:36:22;;;;;;;9.50;6.55;;;;;;;17.88;74.15;99628.88;4957705;29;20043;-67
2021/06/27 01:38:52;;;;;;;9.73;7.00;;;;;;;17.89;74.62;99628.00;4957314;29;20058;-67
2021/06/27 01:41:21;;;;;;;9.60;6.68;;;;;;;18.03;74.30;99632.72;4957128;28;20047;-67
2021/06/27 01:43:50;;;;;;;9.05;6.45;;;;;;;17.93;74.13;99626.13;4956602;29;20055;-67
2021/06/27 01:46:20;;;;;;;10.07;7.43;;;;;;;17.98;74.17;99624.25;4957290;29;20047;-67
2021/06/27 01:48:50;;;;;;;9.60;7.38;;;;;;;18.13;74.03;99623.78;4957268;29;20110;-67
2021/06/27 01:51:19;;;;;;;8.82;6.80;;;;;;;18.24;73.82;99626.84;4957043;29;20050;-67
2021/06/27 01:53:47;;;;;;;8.73;7.22;;;;;;;18.36;73.27;99636.78;4957114;29;20483;-67
2021/06/27 01:56:18;;;;;;;15.63;6.97;;;;;;;18.47;72.86;99642.50;4957369;29;20479;-67
2021/06/27 01:58:50;;;;;;;11.85;7.20;;;;;;;18.42;72.39;99640.91;4957071;29;20123;-67
2021/06/27 02:01:22;;;;;;;12.40;7.65;;;;;;;18.30;72.76;99642.16;4957008;29;20051;-67
2021/06/27 02:03:51;;;;;;;10.38;7.78;;;;;;;18.26;72.65;99635.38;4957293;29;20122;-68
2021/06/27 02:06:21;;;;;;;9.68;7.45;;;;;;;18.35;72.63;99640.28;4956869;29;20071;-67
2021/06/27 02:08:51;;;;;;;9.75;7.80;;;;;;;18.44;72.26;99644.28;4956909;29;20058;-68
2021/06/27 02:11:24;;;;;;;9.65;7.63;;;;;;;18.46;72.21;99643.38;4957080;28;20043;-68
2021/06/27 02:13:55;;;;;;;9.02;7.13;;;;;;;18.49;71.95;99632.94;4956821;29;20047;-67
2021/06/27 02:16:28;;;;;;;9.25;7.03;;;;;;;18.52;71.53;99637.97;4956696;29;20130;-68
2021/06/27 02:18:57;;;;;;;8.52;6.70;;;;;;;18.52;71.30;99643.16;4956723;29;20070;-68
2021/06/27 02:21:29;;;;;;;8.98;6.85;;;;;;;18.49;71.12;99643.28;4956585;29;20043;-68
2021/06/27 02:24:00;;;;;;;8.38;7.20;;;;;;;18.46;70.91;99639.94;4956584;28;20070;-68
2021/06/27 02:26:31;;;;;;;9.68;7.20;;;;;;;18.44;70.74;99650.31;4956490;29;20047;-68
2021/06/27 02:29:01;;;;;;;9.48;6.78;;;;;;;18.43;70.94;99646.03;4956526;29;20123;-68
2021/06/27 02:31:31;;;;;;;;;;;;;;;18.42;70.66;99641.75;4956791;29;20521;-68
2021/06/27 02:34:03;;;;;;;9.68;6.75;;;;;;;18.39;70.55;99652.19;4956464;29;19965;-68
2021/06/27 02:36:32;;;;;;;8.40;6.43;;;;;;;18.30;70.57;99639.59;4956355;29;20081;-67
2021/06/27 02:39:01;;;;;;;9.90;6.57;;;;;;;18.35;70.65;99639.44;4956582;29;20047;-68
2021/06/27 02:41:32;;;;;;;8.35;6.47;;;;;;;18.35;70.56;99634.25;4956033;29;20094;-68
2021/06/27 02:44:02;;;;;;;9.02;6.78;;;;;;;18.24;70.58;99638.91;4956190;28;20051;-68
2021/06/27 02:46:31;;;;;;;8.90;6.80;;;;;;;18.08;70.92;99633.41;4956409;29;20491;-68
2021/06/27 02:49:00;;;;;;;11.98;7.43;;;;;;;17.96;71.24;99637.22;4956114;29;20769;-69
2021/06/27 02:51:29;;;;;;;9.40;6.72;;;;;;;17.80;71.60;99630.00;4955999;29;20058;-68
2021/06/27 02:53:58;;;;;;;10.13;7.37;;;;;;;17.58;72.25;99623.81;4970816;28;20046;-68
2021/06/27 02:56:28;;;;;;;9.80;7.03;;;;;;;17.52;72.84;99636.88;4956692;29;20083;-69
2021/06/27 02:58:58;;;;;;;8.52;6.57;;;;;;;17.59;72.78;99631.47;4955880;29;20051;-69
2021/06/27 03:01:27;;;;;;;10.48;6.63;;;;;;;17.77;72.80;99635.25;4955317;29;20039;-68
2021/06/27 03:03:56;;;;;;;8.05;6.22;;;;;;;17.83;72.41;99625.56;4955917;29;20059;-68
2021/06/27 03:06:25;;;;;;;10.47;7.10;;;;;;;17.88;72.63;99633.19;4955810;29;20054;-68
2021/06/27 03:08:54;;;;;;;11.10;6.63;;;;;;;17.83;72.63;99635.91;4955838;29;20328;-68
2021/06/27 03:11:24;;;;;;;10.23;7.15;;;;;;;17.98;72.57;99640.59;4955716;28;20051;-68
2021/06/27 03:13:56;;;;;;;10.80;6.35;;;;;;;17.99;72.70;99631.13;4955762;29;20095;-68
2021/06/27 03:16:26;;;;;;;9.65;6.85;;;;;;;18.04;72.71;99635.22;4955787;29;20051;-68
2021/06/27 03:18:56;;;;;;;11.50;7.18;;;;;;;18.24;72.31;99633.75;4956016;28;20555;-68
2021/06/27 03:21:25;;;;;;;13.70;7.23;;;;;;;18.21;72.25;99626.94;4955907;29;20126;-68
2021/06/27 03:23:54;;;;;;;9.90;6.85;;;;;;;18.24;72.35;99626.00;4955554;29;20285;-68
2021/06/27 03:26:23;;;;;;;11.57;7.22;;;;;;;18.33;72.43;99626.53;4955607;29;20525;-68
2021/06/27 03:28:52;;;;;;;10.27;6.53;;;;;;;18.42;72.20;99628.00;4955558;29;20135;-68
2021/06/27 03:31:21;;;;;;;11.00;7.10;;;;;;;18.55;72.08;99631.88;4955395;29;20052;-67
2021/06/27 03:33:51;;;;;;;9.10;6.57;;;;;;;18.71;71.69;99633.88;4955511;29;20107;-68
2021/06/27 03:36:20;;;;;;;9.48;7.05;;;;;;;18.91;71.10;99632.38;4955513;29;20051;-68
2021/06/27 03:38:55;;;;;;;10.07;6.83;;;;;;;18.99;70.67;99627.75;4955446;29;20132;-67
2021/06/27 03:41:25;;;;;;;9.60;6.78;;;;;;;19.01;70.47;99631.13;4955414;29;20269;-68
2021/06/27 03:43:54;;;;;;;8.93;6.78;;;;;;;18.99;70.13;99635.50;4955448;29;20059;-67
2021/06/27 03:46:23;;;;;;;8.98;6.85;;;;;;;18.99;69.90;99632.91;4955380;29;20035;-68
2021/06/27 03:48:53;;;;;;;10.68;7.82;;;;;;;18.95;69.99;99626.19;4955315;29;20522;-67
2021/06/27 03:51:22;;;;;;;8.98;6.85;;;;;;;18.95;69.96;99626.19;4955309;29;20498;-68
2021/06/27 03:53:51;;;;;;;10.27;7.33;;;;;;;19.00;70.12;99629.44;4955536;29;20448;-68
2021/06/27 03:56:21;;;;;;;10.10;6.75;;;;;;;19.04;69.86;99625.84;4955259;29;20641;-68
2021/06/27 03:58:50;;;;;;;9.82;7.35;;;;;;;19.03;70.05;99631.91;4955266;29;20143;-67
2021/06/27 04:01:19;;;;;;;8.70;7.50;;;;;;;19.01;70.31;99631.97;4955456;29;20134;-68
2021/06/27 04:03:49;;;;;;;9.30;6.68;;;;;;;19.01;70.61;99631.13;4955159;29;20047;-67
2021/06/27 04:06:19;;;;;;;10.10;7.57;;;;;;;18.98;70.79;99639.00;4957152;28;20114;-67
2021/06/27 04:08:48;;;;;;;9.60;7.10;;;;;;;18.93;71.50;99633.97;4959070;29;20631;-67
2021/06/27 04:11:17;;;;;;;11.63;6.93;;;;;;;18.88;71.37;99632.47;4959184;29;20459;-67
2021/06/27 04:13:46;;;;;;;13.60;7.28;;;;;;;18.88;71.79;99632.47;4958923;29;20054;-67
2021/06/27 04:16:15;;;;;;;11.77;8.05;;;;;;;18.90;71.68;99639.28;4958914;29;20050;-67
2021/06/27 04:18:44;;;;;;;9.13;7.07;;;;;;;18.90;71.61;99633.25;4958868;29;20494;-67
2021/06/27 04:21:13;;;;;;;11.93;6.95;;;;;;;18.92;71.59;99644.38;4958818;29;20051;-67
2021/06/27 04:23:44;;;;;;;9.85;7.68;;;;;;;18.85;71.54;99627.41;4958624;29;20113;-67
2021/06/27 04:26:13;;;;;;;10.32;7.07;;;;;;;18.92;71.57;99639.22;4958769;29;20472;-67
2021/06/27 04:28:42;;;;;;;9.40;7.15;;;;;;;18.94;71.58;99645.16;4958671;29;20051;-67
2021/06/27 04:31:11;;;;;;;12.07;7.83;;;;;;;18.84;71.76;99649.81;4958813;29;20126;-67
2021/06/27 04:33:40;;;;;;;10.90;7.57;;;;;;;18.86;71.82;99648.03;4958422;29;20317;-66
2021/06/27 04:36:09;;;;;;;11.07;7.20;;;;;;;18.93;71.66;99651.25;4958570;29;20122;-67
2021/06/27 04:38:37;;;;;;;9.90;6.82;;;;;;;19.06;71.36;99655.09;4958793;29;20086;-66
2021/06/27 04:41:08;;;;;;;8.90;6.43;;;;;;;19.41;70.85;99649.53;4958514;28;20059;-67
2021/06/27 04:43:37;;;;;;;8.80;6.60;;;;;;;19.82;69.96;99642.78;4958160;28;20142;-65
2021/06/27 04:46:06;;;;;;;10.27;7.23;;;;;;;20.11;69.14;99646.81;4958683;28;20443;-65
2021/06/27 04:48:37;;;;;;;8.88;6.57;;;;;;;20.37;68.11;99642.28;4958316;29;20281;-69
2021/06/27 04:51:06;;;;;;;9.48;6.28;;;;;;;20.44;67.33;99645.47;4957211;29;20039;-65
2021/06/27 04:53:35;;;;;;;10.18;6.85;;;;;;;20.57;66.88;99641.44;4958194;29;20098;-65
2021/06/27 04:56:05;;;;;;;8.65;6.78;;;;;;;20.71;65.91;99642.56;4958236;28;20090;-65
2021/06/27 04:58:35;;;;;;;8.43;6.50;;;;;;;20.93;65.19;99646.81;4957224;29;20067;-65
2021/06/27 05:01:05;;;;;;;8.85;6.30;;;;;;;21.10;64.39;99644.38;4958513;29;20542;-65
2021/06/27 05:03:35;;;;;;;9.98;6.20;;;;;;;21.31;63.91;99648.59;4958083;29;20094;-65
2021/06/27 05:06:03;;;;;;;7.93;6.07;;;;;;;21.42;63.16;99648.13;4958043;28;20039;-64
2021/06/27 05:08:32;;;;;;;9.27;5.88;;;;;;;21.56;62.83;99658.72;4957933;29;20036;-65
2021/06/27 05:11:01;;;;;;;6.97;5.97;;;;;;;21.81;62.28;99651.50;4957944;28;20058;-65
2021/06/27 05:13:30;;;;;;;8.73;6.18;;;;;;;21.98;61.76;99659.34;4957830;29;20384;-64
2021/06/27 05:16:01;;;;;;;8.30;5.90;;;;;;;22.12;61.03;99649.16;4958144;28;20498;-65
2021/06/27 05:18:30;;;;;;;8.70;6.30;;;;;;;22.26;60.61;99662.34;4956521;28;20046;-65
2021/06/27 05:20:59;;;;;;;8.05;5.70;;;;;;;22.34;59.93;99665.38;4957828;28;20546;-65
2021/06/27 05:23:27;;;;;;;8.15;5.72;;;;;;;22.38;59.52;99666.09;4957721;29;20399;-65
2021/06/27 05:25:56;;;;;;;9.15;6.32;;;;;;;22.45;59.34;99667.47;4957722;29;20094;-65
2021/06/27 05:28:25;;;;;;;8.25;5.65;;;;;;;22.54;58.70;99662.66;4957626;28;20051;-64
2021/06/27 05:30:54;;;;;;;7.60;6.00;;;;;;;22.54;58.56;99670.47;4957461;29;20074;-64
2021/06/27 05:33:26;;;;;;;9.13;5.95;;;;;;;22.61;58.35;99673.63;4957532;28;20138;-65
2021/06/27 05:35:55;;;;;;;7.68;5.38;;;;;;;22.68;58.17;99670.63;4957772;29;20403;-65
2021/06/27 05:38:28;;;;;;;8.98;6.20;;;;;;;22.84;57.92;99664.66;4957709;29;20047;-65
2021/06/27 05:40:57;;;;;;;7.30;4.90;;;;;;;22.97;57.53;99671.75;4953326;28;20444;-66
2021/06/27 05:43:26;;;;;;;6.97;5.32;;;;;;;23.08;56.97;99663.41;4933288;29;20051;-66
2021/06/27 05:45:55;;;;;;;7.30;5.60;;;;;;;23.16;56.67;99661.22;4934698;29;20440;-65
2021/06/27 05:48:25;;;;;;;9.55;5.40;;;;;;;23.31;56.49;99665.63;4940693;29;20091;-64
2021/06/27 05:50:55;;;;;;;8.65;5.68;;;;;;;23.39;56.00;99668.72;4934069;29;20048;-66
2021/06/27 06:02:30;;;;;;;14.97;6.20;;;;;;;23.82;55.61;99662.88;5113755;27;1942262;-65
2021/06/27 06:04:59;;;;;;;9.52;5.82;;;;;;;23.93;55.36;99670.09;5152388;27;20298;-65
2021/06/27 06:07:28;;;;;;;7.75;5.53;;;;;;;23.96;55.47;99667.31;5170301;27;20138;-65
2021/06/27 06:09:57;;;;;;;8.10;5.60;;;;;;;24.02;55.41;99670.41;5145176;27;20027;-65
2021/06/27 06:12:26;;;;;;;6.85;5.20;;;;;;;24.11;55.42;99665.66;5169023;27;20050;-66
2021/06/27 06:14:55;;;;;;;7.90;5.57;;;;;;;24.11;55.44;99668.25;5172704;27;20050;-66
2021/06/27 06:17:24;;;;;;;7.53;5.32;;;;;;;24.21;54.87;99667.63;5172460;27;20133;-67
2021/06/27 06:19:54;;;;;;;6.43;5.35;;;;;;;24.31;54.84;99670.56;5173130;27;20050;-67
2021/06/27 06:22:23;;;;;;;8.32;5.68;;;;;;;24.44;54.56;99661.13;5172862;27;20046;-67
2021/06/27 06:24:57;;;;;;;7.15;5.55;;;;;;;24.32;54.17;99646.16;5173090;27;20046;-66
2021/06/27 06:27:26;;;;;;;7.65;5.90;;;;;;;24.51;54.15;99659.84;5173099;27;20047;-67
2021/06/27 06:29:55;;;;;;;7.22;5.60;;;;;;;24.48;53.63;99662.63;5172938;27;20043;-67
2021/06/27 06:32:24;;;;;;;6.60;5.30;;;;;;;24.46;53.70;99659.25;5173524;27;20069;-67
2021/06/27 06:34:54;;;;;;;7.28;5.47;;;;;;;24.55;53.68;99654.34;5172771;27;20074;-67
2021/06/27 06:37:23;;;;;;;8.25;6.03;;;;;;;24.56;53.54;99655.19;5172900;27;20468;-67
2021/06/27 06:39:52;;;;;;;8.00;5.60;;;;;;;24.61;53.81;99663.59;5172793;27;20425;-66
2021/06/27 06:42:21;;;;;;;7.53;6.00;;;;;;;24.78;53.92;99655.66;5172669;27;20038;-67
2021/06/27 06:44:50;;;;;;;7.82;6.00;;;;;;;24.91;53.55;99661.81;5172715;27;20046;-67
2021/06/27 06:47:19;;;;;;;6.20;5.20;;;;;;;25.02;53.42;99658.56;5172556;27;20574;-67
2021/06/27 06:49:48;;;;;;;8.45;5.65;;;;;;;25.23;53.46;99652.03;5172978;27;20042;-67
2021/06/27 06:52:19;;;;;;;7.55;5.50;;;;;;;25.39;53.04;99651.94;5172471;27;20034;-67
2021/06/27 06:54:48;;;;;;;8.70;5.85;;;;;;;25.41;52.95;99650.09;5172599;27;20045;-67
2021/06/27 06:57:17;;;;;;;7.53;5.20;;;;;;;25.54;52.83;99645.78;5172344;27;20049;-67
2021/06/27 06:59:46;;;;;;;;;;;;;;;25.74;52.54;99642.78;5154225;27;20045;-66
2021/06/27 07:02:15;;;;;;;7.43;5.28;;;;;;;25.91;51.85;99650.38;5172080;27;19919;-66
2021/06/27 07:04:44;;;;;;;6.53;5.43;;;;;;;25.86;51.57;99642.00;5172649;27;20126;-67
2021/06/27 07:07:12;;;;;;;7.07;5.32;;;;;;;25.77;51.51;99642.59;5172260;27;20059;-67
2021/06/27 07:09:44;;;;;;;6.00;5.03;;;;;;;25.77;51.09;99637.34;5172162;27;20514;-67
2021/06/27 07:12:14;;;;;;;7.57;5.25;;;;;;;25.84;51.17;99649.09;5168215;27;20050;-67
2021/06/27 07:14:43;;;;;;;7.70;5.20;;;;;;;25.92;51.12;99641.59;5158205;27;20047;-67
2021/06/27 07:17:13;;;;;;;8.55;5.47;;;;;;;25.99;50.60;99637.63;5158152;27;20064;-66
2021/06/27 07:19:42;;;;;;;6.68;4.88;;;;;;;26.01;50.40;99630.53;5158047;27;20046;-66
2021/06/27 07:22:11;;;;;;;6.45;4.80;;;;;;;26.22;50.00;99639.66;5158161;27;20441;-67
2021/06/27 07:24:40;;;;;;;6.88;4.63;;;;;;;26.40;49.78;99638.44;5158029;27;20035;-67
2021/06/27 07:27:11;;;;;;;7.85;5.28;;;;;;;26.55;49.38;99647.88;5157964;27;20038;-67
2021/06/27 07:29:40;;;;;;;6.75;4.97;;;;;;;26.63;49.40;99646.53;5158023;27;20080;-66
2021/06/27 07:32:09;;;;;;;6.35;5.00;;;;;;;26.81;48.41;99651.41;5157857;27;20066;-67
2021/06/27 07:34:38;;;;;;;7.05;4.60;;;;;;;27.00;48.41;99648.34;5157831;27;20139;-68
2021/06/27 07:37:07;;;;;;;6.60;4.68;;;;;;;27.07;47.98;99647.00;5158070;27;20445;-67
2021/06/27 07:39:36;;;;;;;7.82;4.78;;;;;;;26.88;47.76;99647.41;5157619;27;20050;-68
2021/06/27 07:42:06;;;;;;;6.90;5.20;;;;;;;26.78;48.21;99642.94;5157651;27;20055;-68
2021/06/27 07:44:37;;;;;;;6.95;4.80;;;;;;;26.68;49.52;99642.69;5157663;27;20047;-68
2021/06/27 07:47:06;;;;;;;6.88;4.65;;;;;;;26.74;48.87;99642.25;5157666;27;20053;-67
2021/06/27 07:49:35;;;;;;;7.30;4.50;;;;;;;27.01;48.23;99650.03;5139124;27;20051;-68
2021/06/27 07:52:07;;;;;;;8.60;5.03;;;;;;;26.95;48.30;99655.69;5157505;27;20049;-67
2021/06/27 07:54:36;;;;;;;5.90;4.85;;;;;;;26.82;48.60;99649.63;5157650;27;20050;-67
2021/06/27 07:57:06;;;;;;;5.80;4.70;;;;;;;27.13;48.37;99644.81;5157416;27;20428;-68
2021/06/27 07:59:37;;;;;;;6.43;5.10;;;;;;;27.29;48.44;99649.81;5157457;27;20453;-68
2021/06/27 08:02:06;;;;;;;6.22;4.75;;;;;;;27.63;47.92;99638.66;5138593;27;20050;-67
2021/06/27 08:04:35;;;;;;;6.05;4.60;;;;;;;27.79;46.85;99633.97;5157193;27;20086;-67
2021/06/27 08:07:04;;;;;;;6.40;4.88;;;;;;;27.82;46.76;99631.13;5157154;27;20039;-68
2021/06/27 08:09:33;;;;;;;7.80;4.47;;;;;;;27.88;46.53;99632.50;5157109;27;20085;-68
2021/06/27 08:12:02;;;;;;;6.07;4.80;;;;;;;28.17;45.91;99630.41;5157434;27;20127;-67
2021/06/27 08:14:31;;;;;;;7.07;5.05;;;;;;;28.29;45.86;99632.13;5156944;27;20107;-68
2021/06/27 08:17:01;;;;;;;7.10;5.10;;;;;;;28.27;46.58;99626.13;5157067;27;20039;-68
2021/06/27 08:19:31;;;;;;;6.68;5.10;;;;;;;28.31;47.21;99632.84;5138550;27;20496;-68
2021/06/27 08:22:00;;;;;;;5.60;4.90;;;;;;;28.17;47.79;99630.41;5157118;27;20039;-68
2021/06/27 08:24:29;;;;;;;6.32;4.80;;;;;;;28.48;47.37;99632.41;5155773;27;20035;-68
2021/06/27 08:26:58;;;;;;;6.00;4.95;;;;;;;28.68;46.22;99634.38;5157129;27;20027;-68
2021/06/27 08:29:27;;;;;;;8.02;5.20;;;;;;;28.71;45.99;99639.41;5156787;27;20073;-67
2021/06/27 08:31:56;;;;;;;8.15;4.47;;;;;;;28.74;44.67;99638.34;5156673;27;20556;-67
2021/06/27 08:34:27;;;;;;;5.45;4.60;;;;;;;28.70;44.16;99637.72;5156734;27;20047;-67
2021/06/27 08:36:56;;;;;;;6.35;4.95;;;;;;;28.70;43.74;99636.91;5156535;27;20465;-67
2021/06/27 08:39:28;;;;;;;5.57;4.55;;;;;;;28.72;43.58;99630.59;5156590;27;20050;-67
2021/06/27 08:41:57;;;;;;;8.48;4.82;;;;;;;28.73;43.90;99632.25;5156712;27;20095;-68
2021/06/27 08:44:26;;;;;;;6.10;4.47;;;;;;;28.83;43.47;99627.97;5156468;27;20400;-67
2021/06/27 08:46:56;;;;;;;5.30;4.43;;;;;;;28.93;42.96;99628.09;5156741;27;20046;-68
2021/06/27 08:49:28;;;;;;;6.00;4.40;;;;;;;28.93;43.02;99634.22;5156302;27;20077;-67
2021/06/27 08:51:57;;;;;;;5.25;4.30;;;;;;;29.00;42.58;99624.88;5156628;27;20062;-68
2021/06/27 08:54:29;;;;;;;5.28;4.18;;;;;;;29.08;43.26;99611.97;5156224;27;20448;-67
2021/06/27 08:56:58;;;;;;;5.75;4.70;;;;;;;28.93;43.17;99618.44;5156139;27;20069;-68
2021/06/27 08:59:27;;;;;;;5.60;4.47;;;;;;;29.01;42.64;99607.34;5156221;27;20103;-68
2021/06/27 09:02:00;;;;;;;5.60;4.53;;;;;;;29.05;42.94;99621.91;5155677;27;20385;-68
2021/06/27 09:04:33;;;;;;;6.80;4.63;;;;;;;29.16;42.63;99614.84;5156476;27;20054;-67
2021/06/27 09:07:27;;;;;;;5.40;4.22;;;;;;;29.36;41.82;99620.38;5155924;27;20050;-67
2021/06/27 09:10:01;;;;;;;5.53;4.55;;;;;;;29.48;41.68;99611.50;5155977;27;20117;-67
2021/06/27 09:12:45;;;;;;;6.68;4.45;;;;;;;29.49;41.65;99605.28;5156007;27;20046;-68
2021/06/27 09:15:18;;;;;;;5.80;4.15;;;;;;;29.72;42.51;99602.50;5155803;27;20134;-68
2021/06/27 09:17:48;;;;;;;5.80;4.55;;;;;;;30.00;41.86;99606.38;5155818;27;20500;-67
2021/06/27 09:20:18;;;;;;;5.90;4.70;;;;;;;29.88;41.13;99604.72;5155779;27;20050;-68
2021/06/27 09:22:53;;;;;;;5.95;4.10;;;;;;;29.90;41.12;99602.81;5137297;27;20045;-68
2021/06/27 09:25:25;;;;;;;6.00;4.45;;;;;;;29.81;41.37;99601.78;5155744;27;20122;-69
2021/06/27 09:28:05;;;;;;;5.57;4.60;;;;;;;29.67;41.85;99609.91;5156027;27;20053;-68
2021/06/27 09:30:37;;;;;;;6.20;4.50;;;;;;;29.98;41.75;99600.38;5155656;27;20043;-69
2021/06/27 09:33:10;;;;;;;6.80;4.78;;;;;;;30.18;41.96;99611.94;5155578;27;20085;-69
2021/06/27 09:35:45;;;;;;;5.55;4.57;;;;;;;30.25;40.74;99610.44;5155329;27;20039;-68
2021/06/27 09:38:27;;;;;;;5.20;4.28;;;;;;;30.26;39.92;99610.31;5155614;27;20069;-70
2021/06/27 09:40:58;;;;;;;6.20;4.32;;;;;;;30.20;39.64;99608.19;5155380;27;20466;-67
2021/06/27 09:43:29;;;;;;;5.90;4.50;;;;;;;30.31;39.08;99600.25;5155403;27;20039;-68
2021/06/27 09:46:00;;;;;;;5.70;4.63;;;;;;;29.71;40.42;99600.81;5155466;27;20080;-68
2021/06/27 09:48:29;;;;;;;7.68;4.53;;;;;;;29.95;40.27;99598.00;5155402;27;20042;-68
2021/06/27 09:51:00;;;;;;;5.20;4.05;;;;;;;30.19;39.82;99601.25;5155347;27;20042;-67
2021/06/27 09:53:36;;;;;;;5.47;4.35;;;;;;;30.34;39.82;99594.75;5155645;27;20038;-68
2021/06/27 09:56:07;;;;;;;6.95;4.25;;;;;;;30.44;39.29;99595.66;5155341;27;20051;-67
2021/06/27 09:58:37;;;;;;;6.03;4.32;;;;;;;30.58;39.40;99598.91;5155497;27;20403;-70
2021/06/27 10:01:21;;;;;;;4.90;3.95;;;;;;;30.48;39.62;99586.53;5154993;27;20046;-68
2021/06/27 10:03:55;;;;;;;5.95;4.07;;;;;;;30.53;39.04;99583.50;5155242;27;20034;-67
2021/06/27 10:06:28;;;;;;;4.85;3.65;;;;;;;30.50;38.13;99592.50;5136945;27;20047;-68
2021/06/27 10:09:08;;;;;;;5.15;4.25;;;;;;;30.26;37.85;99586.63;5155521;27;20123;-68
2021/06/27 10:11:39;;;;;;;6.38;4.20;;;;;;;30.37;38.11;99589.22;5155468;27;20071;-68
2021/06/27 10:14:10;;;;;;;6.00;4.43;;;;;;;30.45;38.32;99581.50;5155136;27;20122;-68
2021/06/27 10:16:40;;;;;;;5.60;4.22;;;;;;;30.86;38.75;99574.50;5155191;27;20058;-68
2021/06/27 10:19:09;;;;;;;5.40;3.92;;;;;;;31.19;38.01;99576.91;5155027;27;20053;-68
2021/06/27 10:21:40;;;;;;;8.10;4.30;;;;;;;31.33;36.75;99567.78;5155058;27;20050;-68
2021/06/27 10:24:09;;;;;;;5.72;3.80;;;;;;;31.20;37.24;99572.44;5154945;27;20480;-70
2021/06/27 10:26:38;;;;;;;4.95;3.70;;;;;;;31.04;38.12;99573.81;5154932;27;20181;-69
2021/06/27 10:29:10;;;;;;;;;;;;;;;31.11;37.72;99568.81;5155383;27;20035;-69
2021/06/27 10:31:39;;;;;;;4.38;3.17;;;;;;;31.17;35.82;99569.13;5155023;27;19918;-68
2021/06/27 10:34:08;;;;;;;4.10;2.95;;;;;;;31.13;34.22;99558.97;5136583;27;20394;-68
2021/06/27 10:36:42;;;;;;;5.00;3.28;;;;;;;31.02;34.54;99564.34;5154788;27;20046;-68
2021/06/27 10:39:13;;;;;;;4.78;3.80;;;;;;;30.97;34.62;99553.38;5154983;27;20074;-68
2021/06/27 10:41:59;;;;;;;5.45;3.75;;;;;;;30.70;35.51;99569.72;5154870;27;20070;-69
2021/06/27 10:44:29;;;;;;;4.93;3.80;;;;;;;30.78;35.81;99555.91;5154717;27;20053;-69
2021/06/27 10:46:59;;;;;;;5.03;3.67;;;;;;;30.95;35.52;99552.69;5155384;27;20115;-68
2021/06/27 10:50:03;;;;;;;4.57;3.67;;;;;;;30.58;35.64;99552.31;5158666;27;20129;-68
2021/06/27 10:52:53;;;;;;;5.75;3.90;;;;;;;30.25;36.52;99555.97;5158691;27;20058;-68
2021/06/27 10:55:26;;;;;;;5.28;4.10;;;;;;;30.64;36.53;99543.06;5158650;27;20039;-69
2021/06/27 10:57:58;;;;;;;4.53;3.42;;;;;;;30.91;36.02;99545.97;5158619;27;20050;-69
2021/06/27 11:00:29;;;;;;;5.53;3.85;;;;;;;31.11;36.48;99538.00;5158643;27;20057;-69
2021/06/27 11:03:25;;;;;;;4.90;3.60;;;;;;;31.32;35.48;99545.81;5158466;27;20502;-68
2021/06/27 11:05:56;;;;;;;5.40;3.55;;;;;;;31.47;34.75;99549.78;5158702;27;20049;-68
2021/06/27 11:08:34;;;;;;;4.63;3.38;;;;;;;31.52;34.32;99544.09;5158462;27;20105;-67
2021/06/27 11:11:14;;;;;;;4.40;3.25;;;;;;;31.68;34.23;99537.31;5158388;27;20070;-69
2021/06/27 11:13:45;;;;;;;4.15;3.17;;;;;;;31.49;33.65;99541.72;5158616;27;20042;-68
2021/06/27 11:16:19;;;;;;;4.50;3.30;;;;;;;31.49;33.90;99547.84;5158236;27;20385;-68
2021/06/27 11:18:51;;;;;;;4.63;3.17;;;;;;;31.55;33.79;99544.66;5158078;27;20054;-68
2021/06/27 11:21:36;;;;;;;4.95;3.08;;;;;;;30.77;34.07;99548.94;5158254;27;20058;-70
2021/06/27 11:24:08;;;;;;;5.60;3.10;;;;;;;30.15;34.52;99547.19;5158035;27;20119;-68
2021/06/27 11:26:57;;;;;;;4.53;3.00;;;;;;;30.57;34.25;99547.19;5158010;27;20456;-68
2021/06/27 11:29:43;;;;;;;4.95;3.10;;;;;;;30.93;33.78;99544.88;5158366;27;20127;-68
2021/06/27 11:32:43;;;;;;;3.95;2.83;;;;;;;31.26;33.18;99541.13;5157977;27;20540;-69
2021/06/27 11:35:28;;;;;;;4.30;3.00;;;;;;;31.31;34.35;99544.19;5158056;27;20050;-68
2021/06/27 11:37:58;;;;;;;4.10;2.88;;;;;;;30.56;35.04;99540.25;5157739;27;20077;-70
2021/06/27 11:40:48;;;;;;;3.88;2.88;;;;;;;29.59;35.18;99538.63;5157600;27;20414;-69
2021/06/27 11:43:39;;;;;;;3.67;2.80;;;;;;;30.29;35.16;99543.38;5157853;27;20099;-69
2021/06/27 11:46:26;;;;;;;5.05;2.88;;;;;;;31.27;35.33;99541.91;5157479;27;20073;-68
2021/06/27 11:48:55;;;;;;;3.58;2.60;;;;;;;31.71;32.74;99537.03;5157506;27;20043;-68
2021/06/27 11:51:36;;;;;;;3.78;2.58;;;;;;;31.92;31.91;99533.41;5157875;27;20113;-68
2021/06/27 11:54:07;;;;;;;4.00;2.75;;;;;;;32.12;32.91;99527.19;5157517;27;20049;-67
2021/06/27 11:56:54;;;;;;;3.70;2.20;;;;;;;32.36;30.75;99532.84;5157789;27;20062;-67
2021/06/27 11:59:26;;;;;;;4.53;2.35;;;;;;;32.66;30.68;99537.91;5157229;27;20039;-68
2021/06/27 12:02:09;;;;;;;3.63;2.50;;;;;;;32.78;31.35;99539.41;5157201;27;20042;-67